Etusivu
METAR-TAF:

METAR-TAF

Lentoasemat :

Rodez, Ranska

Leveyspiiri: 44-24N, Pituuspiiri: 002-29E, korkeus merenpinnasta: 581 m

Tämänhetkinen sää

Tämä raportti tehtiin 46 minuuttia sitten, kello 08.30 UTC
Tuuli 11 kn idästä/kaakosta
Lämpötila 15°C
Kosteus 36%
Ilmanpaine 1026 hPa
Näkyvyys 10 km tai enemmän
ei pilviä alle 1500 m:ssä eikä cumulonimbus-pilviä

METAR: LFCR 070830Z AUTO 11011KT CAVOK 15/M00 Q1026

Aika: 11:16 (09:16 UTC)


TAF: puuttuu

Säähavainnot ja -ennusteet yli 4000 lentoasemalta (METAR- ja TAF-raportit).

Käytössä olevat sääasemat on merkitty karttaan keltaisilla ja punaisilla pisteillä.

Aseta hiiri pisteen päälle nähdäksesi sääaseman nimen.

Klikkaa sitten nähdäksesi säähavainnot ja -ennusteet.

Kartan vaihtaminen: klikkaa mustalla rastilla varustettuja vihreitä pisteitä, niin voit zoomata sisään; viivalla varustettua vihreää pistettä, niin voit zoomata ulos tai vihreitä nuolia, niin pääset viereisille kartoille.


METAR-TAF: